Time;durP1;ratioP1;P1;durP2;ratioP2;P2;SDS_P1;SDS_P2;PMS_P1;PMS_P2;Temp;Humidity;BMP_temperature;BMP_pressure;BME280_temperature;BME280_humidity;BME280_pressure;Samples;Min_cycle;Max_cycle;Signal;HPM_P1;HPM_P2
2023/09/28 00:02:52;;;;;;;13.13;5.10;;;22.20;66.80;;;;;;5053145;28;20109;-74
2023/09/28 00:05:19;;;;;;;6.82;5.05;;;22.20;66.80;;;;;;5055538;28;20032;-75
2023/09/28 00:07:46;;;;;;;10.13;4.97;;;22.10;67.00;;;;;;5055728;28;20469;-74
2023/09/28 00:10:17;;;;;;;16.63;5.78;;;22.10;66.80;;;;;;5055601;28;20038;-74
2023/09/28 00:12:48;;;;;;;16.73;5.30;;;22.10;66.80;;;;;;5055193;28;20032;-75
2023/09/28 00:15:14;;;;;;;9.00;4.72;;;22.10;66.40;;;;;;5055262;28;20424;-74
2023/09/28 00:17:41;;;;;;;13.35;5.45;;;22.10;66.40;;;;;;5054192;28;20447;-74
2023/09/28 00:20:17;;;;;;;12.30;5.20;;;22.10;66.10;;;;;;5055274;28;20086;-74
2023/09/28 00:22:51;;;;;;;8.07;5.00;;;22.20;65.70;;;;;;5055459;28;20017;-74
2023/09/28 00:25:19;;;;;;;10.00;5.28;;;22.20;65.90;;;;;;5055333;28;20029;-75
2023/09/28 00:27:47;;;;;;;16.63;5.07;;;22.20;65.90;;;;;;5055344;28;20009;-74
2023/09/28 00:30:20;;;;;;;7.13;5.43;;;22.20;65.80;;;;;;5055127;28;20048;-74
2023/09/28 00:32:50;;;;;;;13.23;4.90;;;22.20;66.10;;;;;;5055299;28;20028;-74
2023/09/28 00:35:17;;;;;;;12.13;5.07;;;22.20;66.20;;;;;;5055246;28;20021;-74
2023/09/28 00:37:43;;;;;;;13.32;5.00;;;22.10;66.10;;;;;;5055259;28;20105;-74
2023/09/28 00:40:21;;;;;;;13.15;4.78;;;22.10;66.20;;;;;;5055004;28;20025;-74
2023/09/28 00:42:51;;;;;;;13.00;5.63;;;22.10;66.40;;;;;;5054897;28;20033;-74
2023/09/28 00:45:21;;;;;;;17.45;5.80;;;22.10;66.60;;;;;;5054718;28;20128;-74
2023/09/28 00:47:50;;;;;;;9.77;4.88;;;22.10;66.70;;;;;;5055023;28;20025;-74
2023/09/28 00:50:17;;;;;;;24.08;5.85;;;22.10;66.90;;;;;;5054910;28;20039;-74
2023/09/28 00:52:46;;;;;;;10.20;4.95;;;22.00;67.00;;;;;;5054836;28;20021;-74
2023/09/28 00:55:14;;;;;;;8.70;4.60;;;22.00;67.20;;;;;;5053535;28;20131;-75
2023/09/28 00:57:41;;;;;;;10.73;4.53;;;22.00;67.30;;;;;;5053736;28;20036;-74
2023/09/28 01:00:23;;;;;;;10.15;4.95;;;21.90;67.10;;;;;;5051813;28;20492;-76
2023/09/28 01:02:53;;;;;;;11.00;4.93;;;21.90;67.10;;;;;;5051929;28;20029;-74
2023/09/28 01:05:38;;;;;;;15.45;6.10;;;21.90;67.20;;;;;;5053599;28;20086;-74
2023/09/28 01:08:11;;;;;;;8.98;4.72;;;21.90;67.40;;;;;;5054159;28;20464;-74
2023/09/28 01:10:38;;;;;;;16.52;5.13;;;21.80;67.40;;;;;;5053990;28;20033;-74
2023/09/28 01:13:11;;;;;;;11.70;4.68;;;21.80;67.90;;;;;;5054051;28;20029;-75
2023/09/28 01:15:39;;;;;;;14.98;5.10;;;21.80;68.30;;;;;;5054117;28;20029;-74
2023/09/28 01:18:09;;;;;;;9.38;4.65;;;21.70;68.60;;;;;;5053976;28;20048;-74
2023/09/28 01:20:37;;;;;;;11.73;5.35;;;21.70;68.90;;;;;;5053714;28;20025;-74
2023/09/28 01:23:06;;;;;;;10.90;5.85;;;21.70;69.00;;;;;;5053873;28;20036;-75
2023/09/28 01:25:33;;;;;;;9.52;5.13;;;21.60;69.20;;;;;;5053858;28;20489;-74
2023/09/28 01:27:59;;;;;;;13.90;5.30;;;21.60;70.20;;;;;;5054053;28;20029;-74
2023/09/28 01:30:25;;;;;;;9.35;4.70;;;21.50;69.80;;;;;;5054070;28;20435;-74
2023/09/28 01:32:52;;;;;;;13.38;5.93;;;21.50;69.60;;;;;;5053972;28;20016;-74
2023/09/28 01:35:18;;;;;;;11.48;5.78;;;21.40;70.00;;;;;;5053665;28;20392;-74
2023/09/28 01:38:02;;;;;;;9.15;5.38;;;21.40;70.10;;;;;;5053908;28;20028;-74
2023/09/28 01:40:28;;;;;;;8.30;5.03;;;21.40;70.20;;;;;;5054041;28;20021;-74
2023/09/28 01:42:54;;;;;;;11.75;5.43;;;21.40;70.50;;;;;;5053473;28;20040;-74
2023/09/28 01:45:19;;;;;;;11.70;5.32;;;21.40;70.60;;;;;;5053480;28;20076;-74
2023/09/28 01:47:45;;;;;;;9.90;5.13;;;21.30;70.80;;;;;;5053657;28;20109;-74
2023/09/28 01:50:11;;;;;;;10.23;4.88;;;21.30;70.90;;;;;;5053646;28;20384;-75
2023/09/28 01:52:36;;;;;;;11.35;5.80;;;21.30;70.70;;;;;;5053864;28;20389;-74
2023/09/28 01:55:02;;;;;;;14.80;5.55;;;21.30;70.70;;;;;;5053711;28;20025;-74
2023/09/28 01:57:28;;;;;;;13.63;5.07;;;21.30;70.90;;;;;;5053378;28;20025;-74
2023/09/28 01:59:53;;;;;;;17.13;6.53;;;21.20;70.40;;;;;;5053356;28;20028;-74
2023/09/28 02:02:21;;;;;;;11.32;4.82;;;21.30;70.60;;;;;;5053438;28;20021;-75
2023/09/28 02:04:46;;;;;;;13.75;5.10;;;21.30;70.30;;;;;;5052031;28;20079;-74
2023/09/28 02:07:12;;;;;;;9.27;4.78;;;21.30;70.10;;;;;;5053279;28;20025;-74
2023/09/28 02:09:39;;;;;;;15.65;4.72;;;21.30;70.10;;;;;;5051432;28;20044;-75
2023/09/28 02:12:06;;;;;;;11.13;5.25;;;21.30;70.30;;;;;;5053322;28;20017;-74
2023/09/28 02:14:32;;;;;;;7.93;5.35;;;21.20;70.30;;;;;;5053272;28;20064;-75
2023/09/28 02:16:58;;;;;;;12.18;4.95;;;21.20;70.80;;;;;;5053246;28;20059;-74
2023/09/28 02:19:24;;;;;;;15.38;5.35;;;21.20;71.10;;;;;;5053225;28;20036;-74
2023/09/28 02:21:51;;;;;;;14.70;5.40;;;21.20;70.80;;;;;;5052971;28;20021;-74
2023/09/28 02:24:17;;;;;;;11.68;5.22;;;21.20;70.70;;;;;;5052849;28;20032;-74
2023/09/28 02:26:44;;;;;;;15.70;4.78;;;21.20;70.90;;;;;;5051172;28;20021;-74
2023/09/28 02:29:10;;;;;;;15.80;6.35;;;21.20;71.40;;;;;;5052807;28;20504;-74
2023/09/28 02:31:42;;;;;;;21.52;5.80;;;21.20;71.60;;;;;;5052964;28;20029;-74
2023/09/28 02:34:08;;;;;;;20.33;5.05;;;21.20;71.30;;;;;;5051682;28;20381;-74
2023/09/28 02:36:35;;;;;;;14.48;5.30;;;21.20;71.30;;;;;;5053061;28;20020;-74
2023/09/28 02:39:10;;;;;;;9.35;5.28;;;21.20;71.30;;;;;;5052721;28;20381;-74
2023/09/28 02:41:35;;;;;;;17.17;5.03;;;21.20;71.50;;;;;;5052991;28;20025;-74
2023/09/28 02:44:01;;;;;;;9.20;4.53;;;21.20;71.30;;;;;;5052668;28;20049;-74
2023/09/28 02:46:27;;;;;;;12.18;4.80;;;21.10;71.00;;;;;;5052658;28;20083;-74
2023/09/28 02:48:55;;;;;;;7.85;5.03;;;21.20;71.00;;;;;;5052529;28;20029;-74
2023/09/28 02:51:22;;;;;;;19.83;4.80;;;21.20;70.80;;;;;;5052695;28;20025;-74
2023/09/28 02:53:47;;;;;;;11.65;5.22;;;21.20;71.00;;;;;;5051427;28;20028;-74
2023/09/28 02:56:13;;;;;;;10.77;5.07;;;21.20;70.90;;;;;;5049978;28;20029;-74
2023/09/28 02:58:39;;;;;;;13.25;4.90;;;21.20;70.70;;;;;;5050177;28;20029;-74
2023/09/28 03:01:05;;;;;;;16.10;5.30;;;21.20;70.40;;;;;;5049686;28;20032;-74
2023/09/28 03:03:30;;;;;;;13.65;5.00;;;21.20;70.20;;;;;;5052125;28;20472;-74
2023/09/28 03:05:57;;;;;;;10.95;4.65;;;21.20;70.10;;;;;;5051109;28;20150;-74
2023/09/28 03:08:23;;;;;;;14.40;4.88;;;21.20;69.90;;;;;;5052242;28;20028;-74
2023/09/28 03:10:48;;;;;;;18.65;5.88;;;21.20;70.20;;;;;;5052385;28;20033;-74
2023/09/28 03:13:14;;;;;;;8.63;5.20;;;21.20;70.20;;;;;;5052516;28;20025;-74
2023/09/28 03:15:44;;;;;;;9.82;4.88;;;21.20;70.60;;;;;;5052420;28;20036;-73
2023/09/28 03:18:10;;;;;;;13.18;4.80;;;21.20;70.60;;;;;;5052226;28;20025;-74
2023/09/28 03:20:36;;;;;;;9.75;4.82;;;21.20;71.00;;;;;;5052410;28;20024;-75
2023/09/28 03:23:02;;;;;;;10.85;4.75;;;21.20;70.20;;;;;;5052440;28;20052;-74
2023/09/28 03:25:28;;;;;;;14.65;4.90;;;21.20;70.20;;;;;;5052351;28;20051;-74
2023/09/28 03:27:55;;;;;;;10.43;4.72;;;21.20;70.20;;;;;;5052373;28;20109;-73
2023/09/28 03:30:25;;;;;;;11.30;5.00;;;21.20;70.60;;;;;;5052211;28;20393;-73
2023/09/28 03:32:52;;;;;;;7.70;5.00;;;21.20;70.30;;;;;;5052192;28;20400;-74
2023/09/28 03:35:19;;;;;;;8.30;4.72;;;21.20;70.10;;;;;;5051951;28;20044;-74
2023/09/28 03:37:47;;;;;;;14.43;4.97;;;21.20;70.10;;;;;;5053089;28;20108;-74
2023/09/28 03:40:14;;;;;;;8.75;4.55;;;21.10;70.80;;;;;;5055648;28;20095;-74
2023/09/28 03:42:44;;;;;;;11.73;5.53;;;21.20;71.10;;;;;;5055649;28;20079;-74
2023/09/28 03:45:14;;;;;;;14.05;5.28;;;21.10;70.90;;;;;;5055830;28;20063;-74
2023/09/28 03:47:40;;;;;;;10.85;4.78;;;21.10;70.70;;;;;;5056021;28;20083;-74
2023/09/28 03:50:12;;;;;;;8.93;4.97;;;21.10;70.70;;;;;;5056041;28;20029;-74
2023/09/28 03:52:38;;;;;;;8.07;5.28;;;21.10;70.60;;;;;;5055777;28;20029;-75
2023/09/28 03:55:11;;;;;;;10.05;4.95;;;21.00;71.20;;;;;;5055703;28;20029;-74
2023/09/28 03:57:37;;;;;;;10.63;5.28;;;21.00;70.30;;;;;;5055721;28;20036;-74
2023/09/28 04:00:04;;;;;;;10.45;5.03;;;21.00;70.60;;;;;;5055765;28;20036;-73
2023/09/28 04:02:30;;;;;;;11.30;4.65;;;21.00;70.50;;;;;;5054236;28;20027;-74
2023/09/28 04:04:58;;;;;;;14.77;4.90;;;21.00;70.50;;;;;;5055667;28;20051;-73
2023/09/28 04:07:24;;;;;;;11.43;4.93;;;21.00;70.70;;;;;;5055419;28;20070;-74
2023/09/28 04:09:50;;;;;;;11.13;4.80;;;21.00;70.60;;;;;;5055436;28;20036;-72
2023/09/28 04:12:16;;;;;;;14.02;5.05;;;21.00;70.80;;;;;;5055554;28;20021;-74
2023/09/28 04:14:42;;;;;;;10.55;5.47;;;20.90;70.90;;;;;;5055579;28;20029;-74
2023/09/28 04:17:08;;;;;;;16.08;4.97;;;20.90;70.90;;;;;;5055291;28;20021;-75
2023/09/28 04:19:33;;;;;;;12.98;4.80;;;20.90;70.60;;;;;;5055186;28;20036;-72
2023/09/28 04:21:59;;;;;;;11.65;4.63;;;20.90;70.50;;;;;;5055015;28;20029;-73
2023/09/28 04:24:25;;;;;;;8.73;5.15;;;20.90;70.60;;;;;;5053774;28;20119;-74
2023/09/28 04:26:51;;;;;;;10.38;5.03;;;20.90;70.90;;;;;;5055077;28;20017;-73
2023/09/28 04:29:17;;;;;;;11.63;4.65;;;20.90;71.00;;;;;;5053726;28;20040;-74
2023/09/28 04:31:42;;;;;;;11.70;4.28;;;20.90;71.00;;;;;;5054919;28;20032;-74
2023/09/28 04:34:12;;;;;;;11.18;4.95;;;20.90;71.00;;;;;;5045683;28;20029;-74
2023/09/28 04:36:38;;;;;;;8.20;5.03;;;20.90;70.90;;;;;;5034920;28;20033;-75
2023/09/28 04:39:05;;;;;;;10.25;5.43;;;20.90;71.00;;;;;;5034885;28;20013;-74
2023/09/28 04:41:31;;;;;;;11.82;5.25;;;20.80;70.80;;;;;;5034767;28;20025;-74
2023/09/28 04:43:58;;;;;;;16.27;5.05;;;20.80;70.90;;;;;;5034589;28;20045;-74
2023/09/28 04:46:24;;;;;;;11.05;4.95;;;20.80;70.90;;;;;;5034838;28;20029;-74
2023/09/28 04:48:49;;;;;;;12.98;5.32;;;20.90;70.90;;;;;;5034258;28;20071;-74
2023/09/28 04:51:15;;;;;;;11.25;4.57;;;20.80;70.90;;;;;;5034626;28;20040;-74
2023/09/28 04:53:41;;;;;;;12.65;4.88;;;20.90;70.80;;;;;;5034764;28;20388;-74
2023/09/28 04:56:11;;;;;;;13.57;4.90;;;20.80;70.70;;;;;;5034578;28;20551;-74
2023/09/28 04:58:36;;;;;;;11.60;5.00;;;20.80;70.40;;;;;;5034515;28;20022;-73
2023/09/28 05:01:02;;;;;;;9.82;4.85;;;20.80;70.30;;;;;;5044390;28;20374;-74
2023/09/28 05:03:28;;;;;;;10.27;4.68;;;20.80;70.30;;;;;;5054346;28;20032;-74
2023/09/28 05:05:53;;;;;;;10.18;4.85;;;20.80;70.50;;;;;;5053077;28;20049;-74
2023/09/28 05:08:19;;;;;;;10.82;4.60;;;20.80;70.70;;;;;;5054214;28;20096;-75
2023/09/28 05:10:45;;;;;;;9.88;5.05;;;20.80;70.70;;;;;;5053956;28;20073;-74
2023/09/28 05:13:12;;;;;;;11.68;4.88;;;20.80;70.40;;;;;;5054028;28;20071;-75
2023/09/28 05:15:38;;;;;;;8.43;4.75;;;20.80;70.50;;;;;;5053875;28;20064;-75
2023/09/28 05:18:04;;;;;;;11.10;5.50;;;20.80;70.70;;;;;;5054353;28;20021;-75
2023/09/28 05:20:30;;;;;;;12.38;5.78;;;20.80;71.50;;;;;;5054176;28;20025;-74
2023/09/28 05:22:56;;;;;;;11.50;4.82;;;20.80;70.30;;;;;;5052728;28;20029;-75
2023/09/28 05:25:22;;;;;;;10.05;4.63;;;20.90;69.70;;;;;;5054015;28;20029;-75
2023/09/28 05:27:48;;;;;;;13.52;5.38;;;20.90;70.00;;;;;;5054255;28;20017;-74
2023/09/28 05:30:14;;;;;;;16.20;5.47;;;20.90;70.40;;;;;;5054116;28;20033;-75
2023/09/28 05:32:40;;;;;;;12.57;5.05;;;20.90;70.30;;;;;;5053595;28;20029;-75
2023/09/28 05:35:06;;;;;;;23.75;5.55;;;20.80;70.30;;;;;;5053868;28;20078;-74
2023/09/28 05:37:32;;;;;;;9.52;5.07;;;20.80;70.70;;;;;;5053929;28;20036;-74
2023/09/28 05:40:06;;;;;;;11.13;5.35;;;20.80;71.00;;;;;;5052706;28;20033;-73
2023/09/28 05:42:35;;;;;;;9.40;5.25;;;20.80;71.50;;;;;;5053726;28;20052;-73
2023/09/28 05:45:01;;;;;;;12.73;5.45;;;20.80;71.80;;;;;;5052098;28;20412;-74
2023/09/28 05:47:27;;;;;;;12.73;4.97;;;20.80;72.20;;;;;;5053587;28;20025;-73
2023/09/28 05:49:53;;;;;;;12.10;5.60;;;20.70;72.20;;;;;;5053257;28;20374;-75
2023/09/28 05:52:19;;;;;;;15.40;5.50;;;20.70;72.60;;;;;;5052105;28;20047;-75
2023/09/28 05:54:45;;;;;;;13.35;5.93;;;20.70;72.60;;;;;;5053507;28;20028;-75
2023/09/28 05:57:14;;;;;;;14.88;5.57;;;20.70;73.00;;;;;;5053306;28;20025;-74
2023/09/28 05:59:39;;;;;;;11.45;5.40;;;20.70;73.20;;;;;;5052967;28;20017;-74
2023/09/28 06:02:06;;;;;;;10.38;4.90;;;20.70;73.20;;;;;;5052520;28;20036;-74
2023/09/28 06:04:33;;;;;;;20.08;5.40;;;20.70;74.50;;;;;;5053292;28;20028;-75
2023/09/28 06:06:59;;;;;;;13.52;5.18;;;20.70;74.00;;;;;;5052669;28;20358;-74
2023/09/28 06:09:26;;;;;;;18.90;5.88;;;20.80;74.40;;;;;;5052572;28;20047;-74
2023/09/28 06:11:52;;;;;;;19.70;6.38;;;20.70;74.60;;;;;;5052970;28;20048;-75
2023/09/28 06:14:19;;;;;;;13.75;5.65;;;20.80;74.70;;;;;;5052837;28;20021;-75
2023/09/28 06:16:45;;;;;;;11.38;5.75;;;20.80;75.10;;;;;;5053114;28;20044;-75
2023/09/28 06:19:13;;;;;;;12.07;5.90;;;20.90;75.50;;;;;;5052710;28;20473;-74
2023/09/28 06:21:39;;;;;;;15.38;5.00;;;20.80;75.40;;;;;;5053174;28;20025;-73
2023/09/28 06:24:05;;;;;;;13.98;5.35;;;20.90;75.20;;;;;;5051582;28;20067;-73
2023/09/28 06:26:32;;;;;;;14.75;5.25;;;20.90;75.50;;;;;;5050398;28;20060;-74
2023/09/28 06:28:58;;;;;;;13.10;5.72;;;20.90;75.80;;;;;;5052232;28;20021;-74
2023/09/28 06:31:24;;;;;;;14.55;5.47;;;21.00;75.70;;;;;;5052284;28;20029;-74
2023/09/28 06:33:50;;;;;;;14.55;5.93;;;21.00;76.00;;;;;;5052349;28;20078;-73
2023/09/28 06:36:17;;;;;;;13.02;5.72;;;21.00;75.90;;;;;;5052118;28;20032;-73
2023/09/28 06:38:42;;;;;;;11.40;5.47;;;21.10;75.40;;;;;;5052145;28;20032;-74
2023/09/28 06:41:08;;;;;;;16.73;5.72;;;21.10;75.30;;;;;;5052381;28;20021;-74
2023/09/28 06:43:35;;;;;;;15.90;5.65;;;21.10;75.20;;;;;;5052188;28;20048;-75
2023/09/28 06:46:01;;;;;;;20.90;5.70;;;21.20;75.10;;;;;;5052271;28;20028;-74
2023/09/28 06:48:28;;;;;;;12.65;5.47;;;21.20;74.80;;;;;;5052082;28;20052;-74
2023/09/28 06:50:59;;;;;;;10.77;4.90;;;21.30;74.90;;;;;;5051803;28;20037;-74
2023/09/28 06:53:25;;;;;;;21.33;5.13;;;21.30;75.00;;;;;;5052154;28;20021;-74
2023/09/28 06:55:52;;;;;;;11.45;5.57;;;21.30;74.80;;;;;;5052140;28;20376;-74
2023/09/28 06:58:19;;;;;;;16.02;4.88;;;21.40;73.90;;;;;;5051902;28;20107;-74
2023/09/28 07:00:45;;;;;;;8.85;4.72;;;21.40;73.80;;;;;;5050754;28;20071;-75
2023/09/28 07:03:13;;;;;;;14.82;5.25;;;21.50;73.40;;;;;;5051818;28;20448;-75
2023/09/28 07:05:39;;;;;;;11.98;5.18;;;21.50;73.50;;;;;;5050656;28;20033;-74
2023/09/28 07:08:05;;;;;;;9.38;5.13;;;21.60;73.80;;;;;;5051453;28;20021;-73
2023/09/28 07:10:37;;;;;;;9.98;4.57;;;21.70;73.80;;;;;;5051748;28;20033;-76
2023/09/28 07:13:05;;;;;;;11.80;4.68;;;21.70;73.90;;;;;;5054990;28;20052;-75
2023/09/28 07:15:34;;;;;;;10.85;4.63;;;21.80;74.00;;;;;;5056289;28;20052;-74
2023/09/28 07:18:01;;;;;;;19.20;4.90;;;21.80;72.90;;;;;;5055284;28;20033;-74
2023/09/28 07:20:27;;;;;;;14.32;5.38;;;21.90;72.50;;;;;;5056347;28;20021;-74
2023/09/28 07:22:53;;;;;;;14.38;5.10;;;21.90;71.90;;;;;;5056155;28;20411;-75
2023/09/28 07:25:20;;;;;;;13.55;5.03;;;22.00;71.90;;;;;;5055188;28;20017;-74
2023/09/28 07:27:49;;;;;;;10.30;5.07;;;22.00;72.10;;;;;;5056004;28;20053;-75
2023/09/28 07:30:15;;;;;;;10.57;4.97;;;22.10;72.20;;;;;;5056069;28;20025;-74
2023/09/28 07:32:41;;;;;;;10.85;5.25;;;22.20;71.90;;;;;;5055936;28;20111;-75
2023/09/28 07:35:11;;;;;;;17.65;5.88;;;22.20;71.50;;;;;;5056098;28;20434;-74
2023/09/28 07:37:40;;;;;;;16.85;5.43;;;22.30;70.70;;;;;;5054747;28;20556;-75
2023/09/28 07:40:08;;;;;;;12.18;5.60;;;22.30;70.90;;;;;;5056040;28;20032;-74
2023/09/28 07:42:34;;;;;;;11.43;5.07;;;22.40;71.00;;;;;;5054805;28;20431;-74
2023/09/28 07:44:59;;;;;;;10.25;5.55;;;22.50;71.50;;;;;;5054516;28;20041;-75
2023/09/28 07:47:25;;;;;;;13.15;4.72;;;22.50;71.10;;;;;;5055872;28;20021;-74
2023/09/28 07:49:53;;;;;;;14.75;5.03;;;22.60;70.60;;;;;;5055843;28;20039;-75
2023/09/28 07:52:19;;;;;;;12.20;4.97;;;22.60;70.00;;;;;;5055984;28;20021;-75
2023/09/28 07:54:45;;;;;;;14.15;5.03;;;22.70;70.10;;;;;;5055618;28;20294;-75
2023/09/28 07:57:11;;;;;;;14.75;4.78;;;22.70;69.50;;;;;;5054419;28;20017;-74
2023/09/28 07:59:37;;;;;;;15.23;4.75;;;22.80;69.20;;;;;;5055522;28;20493;-75
2023/09/28 08:02:04;;;;;;;8.60;4.90;;;22.90;68.90;;;;;;5055497;28;20021;-76
2023/09/28 08:04:30;;;;;;;10.75;4.70;;;22.90;68.80;;;;;;5052886;28;20017;-75
2023/09/28 08:06:57;;;;;;;15.57;5.68;;;23.00;68.40;;;;;;5054841;28;20432;-74
2023/09/28 08:09:23;;;;;;;16.77;5.82;;;23.10;69.20;;;;;;5054714;28;20033;-75
2023/09/28 08:11:52;;;;;;;12.52;4.85;;;23.10;69.30;;;;;;5054744;28;20389;-75
2023/09/28 08:14:20;;;;;;;11.13;4.80;;;23.20;68.80;;;;;;5054887;28;20021;-76
2023/09/28 08:16:48;;;;;;;20.73;4.72;;;23.20;68.60;;;;;;5053469;28;20405;-76
2023/09/28 08:19:14;;;;;;;9.02;4.68;;;23.30;68.60;;;;;;5054575;28;20100;-75
2023/09/28 08:21:40;;;;;;;10.55;4.82;;;23.30;68.10;;;;;;5054331;28;20029;-76
2023/09/28 08:24:08;;;;;;;19.23;4.90;;;23.40;67.80;;;;;;5053405;28;20060;-75
2023/09/28 08:26:34;;;;;;;16.00;4.50;;;23.40;68.00;;;;;;5054760;28;20036;-75
2023/09/28 08:29:04;;;;;;;10.10;4.55;;;23.50;67.00;;;;;;5054828;28;20033;-75
2023/09/28 08:31:33;;;;;;;18.15;4.97;;;23.50;66.30;;;;;;5054942;28;20040;-75
2023/09/28 08:33:59;;;;;;;10.27;5.20;;;23.50;66.10;;;;;;5054323;28;20485;-76
2023/09/28 08:36:27;;;;;;;11.80;5.03;;;23.60;66.20;;;;;;5054736;28;20029;-75
2023/09/28 08:38:53;;;;;;;8.88;4.65;;;23.60;66.30;;;;;;5055071;28;20511;-76
2023/09/28 08:41:27;;;;;;;14.90;5.10;;;23.60;66.00;;;;;;5054867;28;20040;-75
2023/09/28 08:44:04;;;;;;;15.88;4.78;;;23.70;65.50;;;;;;5050697;28;20049;-75
2023/09/28 08:46:38;;;;;;;11.35;5.07;;;23.70;64.80;;;;;;5054598;28;20025;-75
2023/09/28 08:49:08;;;;;;;12.85;5.68;;;23.80;65.10;;;;;;5054538;28;20033;-76
2023/09/28 08:51:38;;;;;;;12.93;5.40;;;23.80;66.10;;;;;;5054569;28;20039;-75
2023/09/28 08:54:05;;;;;;;11.20;5.78;;;23.90;63.40;;;;;;5053520;28;20021;-75
2023/09/28 08:56:39;;;;;;;11.45;4.70;;;24.00;62.30;;;;;;5054706;28;20028;-75
2023/09/28 08:59:05;;;;;;;8.30;4.88;;;24.00;60.80;;;;;;5054445;28;20496;-75
2023/09/28 09:01:32;;;;;;;16.63;5.10;;;24.10;60.60;;;;;;5054308;28;20053;-75
2023/09/28 09:03:59;;;;;;;10.80;5.20;;;24.20;60.10;;;;;;5054572;28;20021;-75
2023/09/28 09:06:28;;;;;;;20.60;5.65;;;24.20;58.50;;;;;;5054431;28;20052;-76
2023/09/28 09:09:00;;;;;;;15.20;5.28;;;24.30;58.70;;;;;;5054224;28;20424;-76
2023/09/28 09:11:33;;;;;;;18.58;5.93;;;24.40;59.90;;;;;;5054221;28;20041;-76
2023/09/28 09:14:00;;;;;;;12.13;5.20;;;24.50;59.50;;;;;;5054398;28;20025;-75
2023/09/28 09:16:30;;;;;;;17.63;5.25;;;24.50;59.30;;;;;;5054148;28;20037;-76
2023/09/28 09:18:57;;;;;;;10.35;5.10;;;24.60;59.40;;;;;;5054127;28;20071;-76
2023/09/28 09:21:23;;;;;;;13.88;5.40;;;24.60;59.10;;;;;;5054450;28;20021;-76
2023/09/28 09:24:06;;;;;;;13.75;5.22;;;24.70;57.90;;;;;;5053830;28;20017;-76
2023/09/28 09:26:42;;;;;;;8.38;4.93;;;24.70;57.80;;;;;;5053692;28;20083;-75
2023/09/28 09:29:09;;;;;;;17.20;5.00;;;24.80;57.80;;;;;;5054003;28;20028;-76
2023/09/28 09:31:45;;;;;;;19.02;5.13;;;24.80;57.50;;;;;;5054083;28;20025;-76
2023/09/28 09:34:16;;;;;;;12.88;5.22;;;24.90;58.00;;;;;;5053868;28;20017;-75
2023/09/28 09:36:48;;;;;;;11.93;5.88;;;24.90;57.20;;;;;;5052274;28;20075;-75
2023/09/28 09:39:24;;;;;;;17.98;5.15;;;24.90;56.10;;;;;;5052793;28;20021;-76
2023/09/28 09:41:51;;;;;;;12.15;4.85;;;24.90;57.40;;;;;;5052772;28;20029;-76
2023/09/28 09:44:19;;;;;;;12.75;6.13;;;25.00;55.60;;;;;;5051635;28;20045;-76
2023/09/28 09:46:49;;;;;;;13.35;5.82;;;25.10;56.10;;;;;;5052334;28;20029;-75
2023/09/28 09:49:19;;;;;;;20.90;5.53;;;25.10;56.30;;;;;;5051614;28;20021;-75
2023/09/28 09:51:46;;;;;;;9.27;4.88;;;25.10;55.60;;;;;;5052069;28;20044;-76
2023/09/28 09:54:16;;;;;;;14.70;4.68;;;25.20;55.50;;;;;;5051551;28;20066;-76
2023/09/28 09:56:44;;;;;;;14.85;4.70;;;25.20;54.90;;;;;;5051746;28;20439;-76
2023/09/28 09:59:18;;;;;;;13.45;4.63;;;25.30;55.00;;;;;;5051990;28;20060;-77
2023/09/28 10:01:47;;;;;;;12.85;5.45;;;25.30;54.60;;;;;;5050264;28;20057;-76
2023/09/28 10:04:16;;;;;;;13.55;5.00;;;25.30;53.50;;;;;;5052093;28;20405;-76
2023/09/28 10:06:56;;;;;;;20.30;4.70;;;25.40;53.70;;;;;;5052678;28;20029;-76
2023/09/28 10:09:22;;;;;;;16.95;4.60;;;25.40;54.40;;;;;;5052497;28;20036;-75
2023/09/28 10:11:50;;;;;;;16.92;4.70;;;25.50;54.80;;;;;;5052681;28;20033;-76
2023/09/28 10:14:18;;;;;;;18.30;4.90;;;25.50;55.10;;;;;;5053151;28;20017;-76
2023/09/28 10:16:47;;;;;;;9.35;4.30;;;25.50;54.20;;;;;;5053431;28;20159;-76
2023/09/28 10:19:19;;;;;;;10.57;4.63;;;25.60;52.90;;;;;;5053383;28;20469;-75
2023/09/28 10:21:50;;;;;;;11.75;4.63;;;25.60;52.40;;;;;;5053328;28;20029;-75
2023/09/28 10:24:20;;;;;;;9.47;4.93;;;25.60;53.20;;;;;;5053016;28;20032;-76
2023/09/28 10:26:51;;;;;;;12.25;4.82;;;25.60;52.60;;;;;;5053162;28;20425;-75
2023/09/28 10:29:20;;;;;;;15.27;5.15;;;25.70;53.00;;;;;;5053074;28;20025;-76
2023/09/28 10:31:46;;;;;;;17.20;4.82;;;25.80;53.10;;;;;;5052985;28;20030;-76
2023/09/28 10:34:19;;;;;;;14.35;4.60;;;25.80;52.70;;;;;;5052568;28;20107;-76
2023/09/28 10:37:10;;;;;;;11.10;4.97;;;25.80;52.60;;;;;;5051843;28;20104;-75
2023/09/28 10:39:42;;;;;;;8.23;4.50;;;25.80;52.60;;;;;;5051802;28;20021;-75
2023/09/28 10:42:12;;;;;;;16.17;5.80;;;25.90;53.40;;;;;;5051774;28;20058;-76
2023/09/28 10:44:55;;;;;;;14.07;4.45;;;26.00;52.50;;;;;;5052063;28;20490;-75
2023/09/28 10:47:22;;;;;;;8.80;4.55;;;25.90;51.50;;;;;;5051850;28;20025;-76
2023/09/28 10:49:49;;;;;;;11.23;4.70;;;26.00;52.70;;;;;;5052556;28;20033;-76
2023/09/28 10:52:16;;;;;;;13.68;4.88;;;26.00;52.90;;;;;;5052653;28;20017;-75
2023/09/28 10:54:44;;;;;;;19.13;4.72;;;26.00;53.30;;;;;;5051881;28;20024;-76
2023/09/28 10:57:10;;;;;;;8.40;4.68;;;26.00;52.80;;;;;;5052132;28;20025;-76
2023/09/28 10:59:37;;;;;;;16.27;4.63;;;26.10;52.70;;;;;;5051854;28;20035;-75
2023/09/28 11:02:04;;;;;;;9.75;4.70;;;26.10;52.40;;;;;;5051321;28;20075;-76
2023/09/28 11:04:30;;;;;;;15.13;4.35;;;26.10;52.70;;;;;;5052468;28;20060;-76
2023/09/28 11:06:56;;;;;;;8.38;4.72;;;26.20;53.00;;;;;;5051329;28;20017;-76
2023/09/28 11:09:22;;;;;;;12.15;4.72;;;26.20;52.40;;;;;;5051644;28;20078;-75
2023/09/28 11:11:49;;;;;;;14.38;5.00;;;26.30;53.10;;;;;;5051186;28;20547;-75
2023/09/28 11:14:15;;;;;;;9.35;4.95;;;26.30;53.00;;;;;;5052365;28;20013;-76
2023/09/28 11:16:42;;;;;;;9.93;4.53;;;26.30;52.50;;;;;;5052079;28;20021;-75
2023/09/28 11:19:13;;;;;;;18.17;4.80;;;26.30;52.00;;;;;;5052493;28;20031;-76
2023/09/28 11:21:42;;;;;;;13.17;4.80;;;26.40;53.30;;;;;;5052228;28;20416;-76
2023/09/28 11:24:07;;;;;;;8.68;4.32;;;26.40;52.50;;;;;;5051892;28;20632;-74
2023/09/28 11:26:35;;;;;;;16.20;4.60;;;26.40;52.40;;;;;;5052223;28;20037;-76
2023/09/28 11:29:01;;;;;;;14.88;4.28;;;26.40;52.40;;;;;;5052091;28;20040;-76
2023/09/28 11:31:27;;;;;;;13.50;4.32;;;26.40;51.60;;;;;;5052012;28;20129;-76
2023/09/28 11:33:57;;;;;;;17.58;4.80;;;26.50;52.10;;;;;;5052162;28;20028;-75
2023/09/28 11:36:24;;;;;;;13.73;4.28;;;26.50;51.40;;;;;;5052293;28;20460;-75
2023/09/28 11:38:55;;;;;;;6.97;4.60;;;26.50;51.60;;;;;;5052217;28;20025;-75
2023/09/28 11:41:22;;;;;;;9.63;4.45;;;26.50;52.00;;;;;;5052209;28;20036;-76
2023/09/28 11:43:50;;;;;;;6.97;4.57;;;26.50;52.10;;;;;;5051964;28;20045;-76
2023/09/28 11:46:36;;;;;;;16.10;4.30;;;26.60;51.80;;;;;;5052202;28;20033;-76
2023/09/28 11:49:22;;;;;;;9.85;4.65;;;26.60;52.50;;;;;;5051860;28;20029;-76
2023/09/28 11:51:48;;;;;;;10.02;4.15;;;26.60;52.00;;;;;;5050509;28;20194;-76
2023/09/28 11:54:16;;;;;;;9.10;4.13;;;26.60;50.30;;;;;;5052258;28;20021;-76
2023/09/28 11:56:43;;;;;;;8.45;4.35;;;26.60;51.20;;;;;;5052162;28;20021;-76
2023/09/28 11:59:14;;;;;;;12.30;4.18;;;26.60;51.50;;;;;;5052065;28;20025;-76
2023/09/28 12:01:39;;;;;;;9.32;4.30;;;26.60;51.90;;;;;;5055665;28;20104;-75
2023/09/28 12:04:06;;;;;;;11.82;4.45;;;26.70;51.60;;;;;;5055716;28;20505;-76
2023/09/28 12:06:33;;;;;;;5.75;3.60;;;26.70;50.70;;;;;;5055504;28;20055;-76
2023/09/28 12:09:00;;;;;;;12.18;4.03;;;26.70;50.60;;;;;;5056032;28;20035;-76
2023/09/28 12:11:25;;;;;;;12.05;4.28;;;26.70;50.90;;;;;;5055547;28;20032;-77
2023/09/28 12:13:52;;;;;;;17.35;4.72;;;26.80;51.00;;;;;;5055227;28;20024;-77
2023/09/28 12:16:22;;;;;;;12.43;4.22;;;26.70;51.40;;;;;;5055434;28;20035;-76
2023/09/28 12:18:48;;;;;;;10.90;4.25;;;26.80;51.10;;;;;;5055675;28;20358;-76
2023/09/28 12:21:14;;;;;;;14.52;4.40;;;26.80;50.40;;;;;;5055557;28;20079;-76
2023/09/28 12:23:40;;;;;;;11.90;4.00;;;26.80;50.20;;;;;;5055386;28;20020;-77
2023/09/28 12:26:06;;;;;;;12.85;4.30;;;26.80;49.90;;;;;;5055321;28;20078;-76
2023/09/28 12:28:32;;;;;;;19.90;4.13;;;26.80;49.80;;;;;;5055376;28;20025;-75
2023/09/28 12:30:58;;;;;;;5.63;4.00;;;26.80;49.70;;;;;;5055112;28;20396;-76
2023/09/28 12:33:24;;;;;;;16.13;4.00;;;26.90;50.00;;;;;;5055183;28;20480;-76
2023/09/28 12:35:52;;;;;;;8.32;4.28;;;26.90;49.70;;;;;;5054883;28;20033;-76
2023/09/28 12:38:18;;;;;;;10.30;4.10;;;26.90;49.40;;;;;;5054919;28;20100;-76
2023/09/28 12:40:43;;;;;;;13.55;4.57;;;26.90;50.60;;;;;;5053787;28;20115;-76
2023/09/28 12:43:10;;;;;;;8.60;4.13;;;26.90;49.10;;;;;;5054919;28;20068;-75